createdAt,value
2023-10-02T00:01:12.708Z,14.71
2023-10-02T00:03:42.137Z,14.69
2023-10-02T00:06:17.790Z,14.69
2023-10-02T00:08:50.904Z,14.68
2023-10-02T00:11:40.918Z,14.69
2023-10-02T00:14:20.699Z,14.70
2023-10-02T00:17:05.845Z,14.67
2023-10-02T00:19:38.438Z,14.67
2023-10-02T00:22:10.620Z,14.67
2023-10-02T00:24:40.904Z,14.67
2023-10-02T00:27:11.611Z,14.65
2023-10-02T00:29:53.121Z,14.65
2023-10-02T00:32:22.242Z,14.64
2023-10-02T00:34:52.391Z,14.60
2023-10-02T00:37:22.388Z,14.59
2023-10-02T00:39:53.630Z,14.57
2023-10-02T00:42:26.439Z,14.55
2023-10-02T00:44:59.101Z,14.55
2023-10-02T00:47:44.527Z,14.55
2023-10-02T00:50:18.440Z,14.54
2023-10-02T00:52:54.255Z,14.52
2023-10-02T00:55:25.529Z,14.51
2023-10-02T00:57:57.938Z,14.49
2023-10-02T01:00:37.768Z,14.49
2023-10-02T01:03:10.325Z,14.50
2023-10-02T01:05:52.059Z,14.50
2023-10-02T01:08:44.732Z,14.48
2023-10-02T01:11:16.022Z,14.48
2023-10-02T01:13:46.009Z,14.45
2023-10-02T01:16:18.894Z,14.44
2023-10-02T01:18:49.746Z,14.41
2023-10-02T01:21:25.924Z,14.42
2023-10-02T01:24:12.248Z,14.42
2023-10-02T01:26:43.448Z,14.40
2023-10-02T01:29:12.993Z,14.39
2023-10-02T01:31:45.464Z,14.40
2023-10-02T01:34:34.878Z,14.39
2023-10-02T01:37:25.430Z,14.37
2023-10-02T01:40:15.021Z,14.33
2023-10-02T01:42:45.324Z,14.32
2023-10-02T01:45:13.665Z,14.30
2023-10-02T01:47:43.454Z,14.27
2023-10-02T01:50:12.205Z,14.26
2023-10-02T01:52:51.335Z,14.23
2023-10-02T01:55:31.245Z,14.22
2023-10-02T01:58:18.737Z,14.21
2023-10-02T02:00:47.895Z,14.18
2023-10-02T02:03:19.628Z,14.17
2023-10-02T02:05:48.418Z,14.16
2023-10-02T02:08:25.692Z,14.16
2023-10-02T02:11:16.529Z,14.13
2023-10-02T02:13:48.433Z,14.10
2023-10-02T02:16:18.591Z,14.11
2023-10-02T02:18:50.243Z,14.10
2023-10-02T02:21:20.288Z,14.10
2023-10-02T02:23:49.528Z,14.07
2023-10-02T02:26:23.158Z,14.06
2023-10-02T02:28:52.810Z,14.04
2023-10-02T02:31:34.627Z,14.03
2023-10-02T02:34:05.319Z,14.02
2023-10-02T02:36:37.033Z,14.00
2023-10-02T02:39:19.060Z,13.98
2023-10-02T02:42:10.113Z,13.98
2023-10-02T02:44:44.610Z,13.97
2023-10-02T02:47:14.351Z,13.95
2023-10-02T02:49:54.218Z,13.95
2023-10-02T02:52:26.797Z,13.94
2023-10-02T02:55:01.319Z,13.92
2023-10-02T02:57:33.091Z,13.91
2023-10-02T03:00:19.086Z,13.90
2023-10-02T03:02:49.699Z,13.88
2023-10-02T03:05:21.863Z,13.87
2023-10-02T03:07:56.260Z,13.86
2023-10-02T03:10:26.761Z,13.86
2023-10-02T03:12:56.353Z,13.86
2023-10-02T03:15:47.211Z,13.86
2023-10-02T03:18:31.837Z,13.85
2023-10-02T03:21:02.199Z,13.81
2023-10-02T03:23:32.153Z,13.81
2023-10-02T03:26:00.594Z,13.83
2023-10-02T03:28:33.671Z,13.82
2023-10-02T03:31:02.991Z,13.81
2023-10-02T03:33:32.743Z,13.81
2023-10-02T03:36:09.650Z,13.81
2023-10-02T03:38:42.753Z,13.80
2023-10-02T03:41:15.179Z,13.80
2023-10-02T03:43:46.027Z,13.81
2023-10-02T03:46:24.549Z,13.79
2023-10-02T03:49:00.330Z,13.77
2023-10-02T03:51:38.577Z,13.75
2023-10-02T03:54:20.220Z,13.76
2023-10-02T03:56:50.421Z,13.74
2023-10-02T03:59:22.874Z,13.74
2023-10-02T04:01:52.566Z,13.75
2023-10-02T04:04:25.315Z,13.75
2023-10-02T04:06:55.854Z,13.74
2023-10-02T04:09:25.865Z,13.75
2023-10-02T04:11:56.359Z,13.73
2023-10-02T04:14:33.802Z,13.72
2023-10-02T04:17:22.404Z,13.70
2023-10-02T04:19:51.164Z,13.69
2023-10-02T04:22:24.388Z,13.66
2023-10-02T04:24:53.412Z,13.62
2023-10-02T04:27:26.631Z,13.58
2023-10-02T04:30:22.709Z,13.57
2023-10-02T04:32:53.116Z,13.53
2023-10-02T04:35:39.538Z,13.52
2023-10-02T04:38:11.227Z,13.47
2023-10-02T04:40:45.978Z,13.45
2023-10-02T04:43:25.260Z,13.42
2023-10-02T04:46:10.068Z,13.45
2023-10-02T04:48:43.494Z,13.43
2023-10-02T04:51:13.264Z,13.42
2023-10-02T04:53:44.318Z,13.38
2023-10-02T04:56:23.491Z,13.36
2023-10-02T04:58:52.681Z,13.36
2023-10-02T05:01:36.386Z,13.37
2023-10-02T05:04:04.883Z,13.38
2023-10-02T05:06:54.182Z,13.38
2023-10-02T05:09:27.816Z,13.38
2023-10-02T05:12:05.515Z,13.38
2023-10-02T05:14:35.943Z,13.37
2023-10-02T05:17:40.432Z,13.36
2023-10-02T05:20:15.363Z,13.35
2023-10-02T05:22:44.652Z,13.35
2023-10-02T05:25:19.509Z,13.35
2023-10-02T05:27:48.649Z,13.35
2023-10-02T05:30:19.795Z,13.34
2023-10-02T05:32:49.571Z,13.36
2023-10-02T05:35:25.458Z,13.35
2023-10-02T05:37:56.372Z,13.34
2023-10-02T05:40:44.738Z,13.33
2023-10-02T05:43:19.169Z,13.33
2023-10-02T05:45:52.117Z,13.32
2023-10-02T05:48:32.451Z,13.30
2023-10-02T05:51:01.203Z,13.30
2023-10-02T05:53:36.657Z,13.30
2023-10-02T05:56:14.162Z,13.30
2023-10-02T05:58:44.018Z,13.29
2023-10-02T06:01:27.611Z,13.31
2023-10-02T06:04:02.768Z,13.32
2023-10-02T06:06:37.885Z,13.31
2023-10-02T06:09:15.609Z,13.32
2023-10-02T06:11:57.985Z,13.33
2023-10-02T06:14:26.158Z,13.34
2023-10-02T06:16:54.822Z,13.33
2023-10-02T06:19:24.412Z,13.35
2023-10-02T06:22:06.574Z,13.36
2023-10-02T06:24:34.744Z,13.39
2023-10-02T06:27:06.712Z,13.39
2023-10-02T06:29:37.475Z,13.44
2023-10-02T06:32:11.458Z,13.43
2023-10-02T06:34:44.728Z,13.44
2023-10-02T06:37:14.663Z,13.44
2023-10-02T06:39:45.249Z,13.45
2023-10-02T06:42:17.412Z,13.46
2023-10-02T06:44:55.058Z,13.48
2023-10-02T06:47:26.134Z,13.49
2023-10-02T06:50:04.328Z,13.52
2023-10-02T06:52:34.141Z,13.54
2023-10-02T06:55:04.957Z,13.57
2023-10-02T06:57:33.413Z,13.59
2023-10-02T07:00:04.531Z,13.61
2023-10-02T07:02:33.928Z,13.65
2023-10-02T07:05:03.722Z,13.67
2023-10-02T07:07:33.994Z,13.71
2023-10-02T07:10:08.852Z,13.71
2023-10-02T07:12:41.250Z,13.70
2023-10-02T07:15:15.109Z,13.70
2023-10-02T07:17:50.946Z,13.71
2023-10-02T07:20:22.859Z,13.72
2023-10-02T07:22:51.851Z,13.74
2023-10-02T07:25:22.054Z,13.76
2023-10-02T07:27:51.044Z,13.77
2023-10-02T07:30:28.948Z,13.81
2023-10-02T07:33:05.386Z,13.84
2023-10-02T07:35:35.910Z,13.86
2023-10-02T07:38:09.815Z,13.89
2023-10-02T07:40:50.193Z,13.92
2023-10-02T07:43:19.843Z,13.96
2023-10-02T07:46:03.539Z,13.98
2023-10-02T07:48:35.078Z,14.03
2023-10-02T07:51:08.263Z,14.06
2023-10-02T07:53:41.499Z,14.08
2023-10-02T07:56:13.220Z,14.14
2023-10-02T07:58:43.190Z,14.17
2023-10-02T08:01:14.223Z,14.22
2023-10-02T08:03:50.761Z,14.24
2023-10-02T08:06:34.554Z,14.29
2023-10-02T08:09:22.286Z,14.33
2023-10-02T08:11:52.719Z,14.37
2023-10-02T08:14:39.975Z,14.41
2023-10-02T08:17:19.962Z,14.43
2023-10-02T08:19:58.232Z,14.48
2023-10-02T08:22:37.542Z,14.52
2023-10-02T08:25:14.655Z,14.55
2023-10-02T08:27:46.052Z,14.59
2023-10-02T08:30:29.737Z,14.63
2023-10-02T08:33:07.397Z,14.70
2023-10-02T08:35:43.236Z,14.76
2023-10-02T08:38:23.500Z,14.84
2023-10-02T08:40:58.641Z,14.90
2023-10-02T08:43:28.008Z,14.97
2023-10-02T08:45:56.726Z,15.04
2023-10-02T08:48:26.732Z,15.11
2023-10-02T08:50:58.662Z,15.16
2023-10-02T08:53:29.132Z,15.21
2023-10-02T08:56:24.635Z,15.21
2023-10-02T08:59:13.932Z,15.20
2023-10-02T09:01:42.364Z,15.19
2023-10-02T09:04:29.389Z,15.17
2023-10-02T09:07:01.309Z,15.15
2023-10-02T09:09:38.004Z,15.15
2023-10-02T09:12:16.370Z,15.15
2023-10-02T09:14:44.915Z,15.16
2023-10-02T09:17:21.140Z,15.17
2023-10-02T09:19:56.284Z,15.19
2023-10-02T09:22:27.475Z,15.23
2023-10-02T09:25:10.050Z,15.26
2023-10-02T09:27:42.844Z,15.32
2023-10-02T09:30:18.264Z,15.37
2023-10-02T09:32:50.765Z,15.42
2023-10-02T09:35:46.905Z,15.48
2023-10-02T09:38:23.809Z,15.54
2023-10-02T09:40:59.641Z,15.59
2023-10-02T09:43:32.050Z,15.60
2023-10-02T09:46:07.001Z,15.62
2023-10-02T09:49:04.185Z,15.62
2023-10-02T09:51:47.195Z,15.59
2023-10-02T09:54:26.575Z,15.60
2023-10-02T09:57:13.118Z,15.54
2023-10-02T09:59:47.130Z,15.52
2023-10-02T10:02:36.587Z,15.49
2023-10-02T10:05:28.994Z,15.48
2023-10-02T10:08:21.186Z,15.48
2023-10-02T10:10:51.815Z,15.49
2023-10-02T10:13:33.565Z,15.48
2023-10-02T10:16:39.757Z,15.48
2023-10-02T10:19:33.491Z,15.48
2023-10-02T10:22:06.212Z,15.46
2023-10-02T10:25:00.157Z,15.44
2023-10-02T10:28:07.017Z,15.40
2023-10-02T10:30:41.305Z,15.39
2023-10-02T10:33:41.951Z,15.36
2023-10-02T10:36:42.747Z,15.36
2023-10-02T10:39:46.845Z,15.35
2023-10-02T10:42:15.052Z,15.36
2023-10-02T10:44:53.628Z,15.37
2023-10-02T10:47:40.518Z,15.37
2023-10-02T10:50:29.429Z,15.41
2023-10-02T10:53:24.294Z,15.44
2023-10-02T10:55:56.754Z,15.46
2023-10-02T10:58:33.165Z,15.47
2023-10-02T11:01:03.502Z,15.48
2023-10-02T11:03:33.665Z,15.50
2023-10-02T11:06:04.325Z,15.53
2023-10-02T11:08:38.937Z,15.54
2023-10-02T11:11:21.400Z,15.55
2023-10-02T11:13:55.616Z,15.55
2023-10-02T11:16:36.490Z,15.56
2023-10-02T11:19:36.409Z,15.57
2023-10-02T11:22:18.714Z,15.57
2023-10-02T11:24:49.859Z,15.57
2023-10-02T11:27:18.344Z,15.60
2023-10-02T11:30:03.010Z,15.62
2023-10-02T11:32:55.402Z,15.63
2023-10-02T11:35:30.420Z,15.65
2023-10-02T11:38:00.688Z,15.66
2023-10-02T11:40:30.971Z,15.66
2023-10-02T11:43:05.384Z,15.68
2023-10-02T11:45:35.183Z,15.71
2023-10-02T11:48:04.055Z,15.70
2023-10-02T11:50:38.169Z,15.71
2023-10-02T11:53:06.694Z,15.72
2023-10-02T11:55:35.473Z,15.73
2023-10-02T11:58:05.982Z,15.76
2023-10-02T12:00:34.342Z,15.78
2023-10-02T12:03:02.729Z,15.82
2023-10-02T12:05:34.385Z,15.81
2023-10-02T12:08:04.971Z,15.84
2023-10-02T12:10:33.400Z,15.84
2023-10-02T12:13:03.504Z,15.84
2023-10-02T12:15:31.698Z,15.80
2023-10-02T12:18:02.198Z,15.79
2023-10-02T12:20:31.000Z,15.77
2023-10-02T12:22:59.324Z,15.78
2023-10-02T12:25:28.853Z,15.77
2023-10-02T12:27:56.988Z,15.76
2023-10-02T12:30:25.288Z,15.75
2023-10-02T12:32:55.461Z,15.75
2023-10-02T12:35:24.460Z,15.76
2023-10-02T12:37:55.159Z,15.78
2023-10-02T12:40:32.940Z,15.82
2023-10-02T12:43:04.452Z,15.84
2023-10-02T12:45:36.590Z,15.82
2023-10-02T12:48:08.241Z,15.82
2023-10-02T12:50:40.974Z,15.80
2023-10-02T12:53:09.993Z,15.81
2023-10-02T12:55:39.878Z,15.80
2023-10-02T12:58:10.264Z,15.82
2023-10-02T13:00:38.680Z,15.79
2023-10-02T13:03:07.868Z,15.81
2023-10-02T13:05:36.872Z,15.81
2023-10-02T13:08:05.534Z,15.82
2023-10-02T13:10:33.646Z,15.85
2023-10-02T13:13:01.787Z,15.88
2023-10-02T13:15:31.273Z,15.93
2023-10-02T13:17:59.876Z,15.97
2023-10-02T13:20:28.779Z,16.00
2023-10-02T13:22:56.908Z,16.03
2023-10-02T13:25:28.119Z,16.05
2023-10-02T13:27:57.336Z,16.07
2023-10-02T13:30:31.450Z,16.10
2023-10-02T13:33:02.018Z,16.14
2023-10-02T13:35:34.094Z,16.14
2023-10-02T13:38:02.829Z,16.17
2023-10-02T13:40:33.045Z,16.18
2023-10-02T13:43:02.302Z,16.21
2023-10-02T13:45:30.877Z,16.24
2023-10-02T13:48:00.489Z,16.22
2023-10-02T13:50:29.956Z,16.22
2023-10-02T13:52:59.047Z,16.22
2023-10-02T13:55:28.582Z,16.25
2023-10-02T13:57:58.680Z,16.20
2023-10-02T14:00:28.112Z,16.20
2023-10-02T14:02:56.853Z,16.18
2023-10-02T14:05:31.041Z,16.15
2023-10-02T14:07:59.581Z,16.11
2023-10-02T14:10:27.889Z,16.10
2023-10-02T14:12:56.115Z,16.12
2023-10-02T14:15:24.278Z,16.12
2023-10-02T14:17:53.370Z,16.11
2023-10-02T14:20:22.154Z,16.10
2023-10-02T14:22:52.324Z,16.11
2023-10-02T14:25:25.303Z,16.10
2023-10-02T14:27:54.163Z,16.10
2023-10-02T14:30:24.167Z,16.08
2023-10-02T14:32:54.161Z,16.08
2023-10-02T14:35:23.630Z,16.07
2023-10-02T14:37:57.044Z,16.05
2023-10-02T14:40:31.111Z,16.02
2023-10-02T14:43:04.711Z,15.97
2023-10-02T14:45:35.368Z,15.94
2023-10-02T14:48:06.550Z,15.90
2023-10-02T14:50:37.861Z,15.86
2023-10-02T14:53:10.380Z,15.83
2023-10-02T14:55:40.266Z,15.78
2023-10-02T14:58:08.640Z,15.73
2023-10-02T15:00:36.963Z,15.71
2023-10-02T15:03:05.503Z,15.68
2023-10-02T15:05:33.917Z,15.65
2023-10-02T15:08:02.602Z,15.62
2023-10-02T15:10:33.388Z,15.57
2023-10-02T15:13:02.928Z,15.54
2023-10-02T15:15:31.205Z,15.58
2023-10-02T15:18:00.049Z,15.56
2023-10-02T15:20:29.630Z,15.54
2023-10-02T15:22:59.045Z,15.45
2023-10-02T15:25:31.732Z,15.44
2023-10-02T15:28:02.651Z,15.42
2023-10-02T15:30:31.187Z,15.39
2023-10-02T15:33:00.118Z,15.37
2023-10-02T15:35:29.281Z,15.34
2023-10-02T15:37:59.926Z,15.31
2023-10-02T15:40:31.613Z,15.31
2023-10-02T15:43:01.555Z,15.29
2023-10-02T15:45:30.020Z,15.28
2023-10-02T15:47:58.997Z,15.27
2023-10-02T15:50:30.485Z,15.26
2023-10-02T15:52:59.434Z,15.22
2023-10-02T15:55:27.937Z,15.20
2023-10-02T15:57:56.094Z,15.20
2023-10-02T16:00:27.712Z,15.20
2023-10-02T16:02:57.676Z,15.21
2023-10-02T16:05:27.146Z,15.23
2023-10-02T16:07:57.146Z,15.20
2023-10-02T16:10:27.039Z,15.18
2023-10-02T16:12:55.666Z,15.18
2023-10-02T16:15:29.798Z,15.17
2023-10-02T16:18:00.425Z,15.13
2023-10-02T16:20:31.245Z,15.12
2023-10-02T16:22:59.942Z,15.11
2023-10-02T16:25:29.990Z,15.10
2023-10-02T16:27:58.533Z,15.11
2023-10-02T16:30:28.669Z,15.08
2023-10-02T16:32:57.341Z,15.04
2023-10-02T16:35:31.938Z,15.04
2023-10-02T16:38:03.558Z,15.01
2023-10-02T16:40:34.626Z,14.98
2023-10-02T16:43:05.825Z,14.94
2023-10-02T16:45:35.928Z,14.93
2023-10-02T16:48:06.432Z,14.89
2023-10-02T16:50:38.163Z,14.86
2023-10-02T16:53:06.676Z,14.87
2023-10-02T16:55:35.178Z,14.86
2023-10-02T16:58:03.955Z,14.87
2023-10-02T17:00:32.945Z,14.83
2023-10-02T17:03:04.564Z,14.82
2023-10-02T17:05:33.671Z,14.83
2023-10-02T17:08:01.907Z,14.82
2023-10-02T17:10:30.210Z,14.81
2023-10-02T17:13:00.635Z,14.81
2023-10-02T17:15:31.432Z,14.80
2023-10-02T17:18:00.147Z,14.77
2023-10-02T17:20:30.990Z,14.72
2023-10-02T17:23:00.045Z,14.72
2023-10-02T17:25:30.138Z,14.72
2023-10-02T17:28:01.471Z,14.71
2023-10-02T17:30:32.933Z,14.69
2023-10-02T17:33:03.108Z,14.66
2023-10-02T17:35:33.129Z,14.68
2023-10-02T17:38:02.053Z,14.70
2023-10-02T17:40:30.423Z,14.70
2023-10-02T17:42:58.570Z,14.69
2023-10-02T17:45:26.753Z,14.70
2023-10-02T17:47:55.057Z,14.70
2023-10-02T17:50:23.886Z,14.71
2023-10-02T17:52:53.516Z,14.68
2023-10-02T17:55:21.957Z,14.64
2023-10-02T17:57:50.602Z,14.66
2023-10-02T18:00:19.965Z,14.63
2023-10-02T18:02:48.901Z,14.59
2023-10-02T18:05:18.208Z,14.56
2023-10-02T18:07:48.263Z,14.56
2023-10-02T18:10:19.581Z,14.52
2023-10-02T18:12:47.691Z,14.52
2023-10-02T18:15:20.091Z,14.51
2023-10-02T18:17:48.626Z,14.46
2023-10-02T18:20:17.451Z,14.44
2023-10-02T18:22:46.982Z,14.42
2023-10-02T18:25:18.493Z,14.39
2023-10-02T18:27:49.811Z,14.33
2023-10-02T18:30:18.448Z,14.28
2023-10-02T18:32:46.998Z,14.23
2023-10-02T18:35:15.353Z,14.18
2023-10-02T18:37:43.684Z,14.18
2023-10-02T18:40:15.170Z,14.10
2023-10-02T18:42:43.402Z,14.05
2023-10-02T18:45:13.617Z,14.02
2023-10-02T18:47:42.967Z,13.99
2023-10-02T18:50:13.860Z,13.96
2023-10-02T18:52:42.998Z,13.91
2023-10-02T18:55:12.231Z,13.89
2023-10-02T18:57:41.322Z,13.88
2023-10-02T19:00:13.228Z,13.87
2023-10-02T19:02:43.736Z,13.84
2023-10-02T19:05:12.242Z,13.83
2023-10-02T19:07:40.537Z,13.82
2023-10-02T19:10:09.377Z,13.81
2023-10-02T19:12:38.682Z,13.80
2023-10-02T19:15:11.091Z,13.77
2023-10-02T19:17:39.494Z,13.78
2023-10-02T19:20:11.910Z,13.76
2023-10-02T19:22:41.352Z,13.76
2023-10-02T19:25:10.753Z,13.72
2023-10-02T19:27:38.944Z,13.67
2023-10-02T19:30:09.829Z,13.68
2023-10-02T19:32:37.989Z,13.67
2023-10-02T19:35:07.204Z,13.63
2023-10-02T19:37:36.716Z,13.61
2023-10-02T19:40:05.928Z,13.58
2023-10-02T19:42:34.447Z,13.55
2023-10-02T19:45:02.647Z,13.55
2023-10-02T19:47:30.833Z,13.53
2023-10-02T19:49:59.015Z,13.53
2023-10-02T19:52:27.148Z,13.50
2023-10-02T19:54:57.001Z,13.48
2023-10-02T19:57:25.274Z,13.46
2023-10-02T19:59:53.539Z,13.43
2023-10-02T20:02:21.763Z,13.42
2023-10-02T20:04:50.449Z,13.43
2023-10-02T20:07:18.594Z,13.41
2023-10-02T20:09:46.727Z,13.40
2023-10-02T20:12:17.141Z,13.39
2023-10-02T20:14:45.273Z,13.37
2023-10-02T20:17:14.484Z,13.34
2023-10-02T20:19:42.695Z,13.32
2023-10-02T20:22:12.326Z,13.32
2023-10-02T20:24:40.525Z,13.30
2023-10-02T20:27:08.727Z,13.28
2023-10-02T20:29:39.116Z,13.27
2023-10-02T20:32:07.427Z,13.25
2023-10-02T20:34:37.495Z,13.22
2023-10-02T20:37:06.675Z,13.22
2023-10-02T20:39:34.957Z,13.20
2023-10-02T20:42:03.330Z,13.24
2023-10-02T20:44:31.763Z,13.19
2023-10-02T20:47:12.257Z,13.17
2023-10-02T20:49:42.546Z,13.16
2023-10-02T20:52:11.525Z,13.12
2023-10-02T20:54:40.155Z,13.12
2023-10-02T20:57:08.363Z,13.12
2023-10-02T20:59:36.833Z,13.11
2023-10-02T21:02:06.781Z,13.10
2023-10-02T21:04:35.029Z,13.10
2023-10-02T21:07:03.172Z,13.10
2023-10-02T21:09:31.267Z,13.11
2023-10-02T21:11:59.858Z,13.11
2023-10-02T21:14:28.293Z,13.09
2023-10-02T21:16:56.419Z,13.06
2023-10-02T21:19:26.336Z,13.05
2023-10-02T21:21:54.442Z,13.03
2023-10-02T21:24:22.998Z,13.02
2023-10-02T21:26:51.749Z,13.01
2023-10-02T21:29:20.032Z,12.99
2023-10-02T21:31:48.190Z,12.97
2023-10-02T21:34:17.062Z,12.96
2023-10-02T21:36:46.645Z,12.96
2023-10-02T21:39:16.149Z,12.93
2023-10-02T21:41:45.980Z,12.94
2023-10-02T21:44:14.309Z,12.92
2023-10-02T21:46:42.622Z,12.91
2023-10-02T21:49:12.443Z,12.90
2023-10-02T21:51:40.878Z,12.89
2023-10-02T21:54:11.130Z,12.90
2023-10-02T21:56:39.281Z,12.88
2023-10-02T21:59:08.239Z,12.88
2023-10-02T22:01:37.140Z,12.90
2023-10-02T22:04:07.852Z,12.89
2023-10-02T22:06:37.473Z,12.88
2023-10-02T22:09:06.729Z,12.90
2023-10-02T22:11:38.094Z,12.92
2023-10-02T22:14:10.307Z,12.92
2023-10-02T22:16:41.072Z,12.93
2023-10-02T22:19:10.774Z,12.93
2023-10-02T22:21:45.150Z,12.94
2023-10-02T22:24:14.789Z,12.94
2023-10-02T22:26:45.659Z,12.94
2023-10-02T22:29:14.238Z,12.93
2023-10-02T22:31:43.677Z,12.94
2023-10-02T22:34:12.568Z,12.96
2023-10-02T22:36:42.296Z,12.97
2023-10-02T22:39:14.163Z,13.00
2023-10-02T22:41:42.435Z,12.99
2023-10-02T22:44:13.403Z,12.99
2023-10-02T22:46:42.731Z,13.01
2023-10-02T22:49:11.929Z,13.00
2023-10-02T22:51:40.332Z,12.98
2023-10-02T22:54:10.124Z,12.97
2023-10-02T22:56:39.246Z,12.96
2023-10-02T22:59:08.394Z,12.96
2023-10-02T23:01:39.172Z,12.94
2023-10-02T23:04:09.541Z,12.92
2023-10-02T23:06:38.999Z,12.91
2023-10-02T23:09:08.534Z,12.89
2023-10-02T23:11:42.409Z,12.87
2023-10-02T23:14:11.857Z,12.85
2023-10-02T23:16:42.358Z,12.83
2023-10-02T23:19:11.528Z,12.82
2023-10-02T23:21:40.617Z,12.79
2023-10-02T23:24:11.842Z,12.78
2023-10-02T23:26:40.014Z,12.76
2023-10-02T23:29:08.930Z,12.74
2023-10-02T23:31:37.089Z,12.73
2023-10-02T23:34:06.646Z,12.73
2023-10-02T23:36:35.290Z,12.71
2023-10-02T23:39:09.036Z,12.71
2023-10-02T23:41:37.434Z,12.69
2023-10-02T23:44:06.620Z,12.69
2023-10-02T23:46:35.047Z,12.68
2023-10-02T23:49:03.545Z,12.63
2023-10-02T23:51:33.209Z,12.63
2023-10-02T23:54:01.481Z,12.63
2023-10-02T23:56:30.165Z,12.63
2023-10-02T23:58:58.351Z,12.62
